LiveATC.Net - Listen to live air traffic control over the Internet!


ICAO: KHTO  IATA: HTO   Airport: East Hampton Airport
City: East Hampton   State/Province: New York
Country: United States   Continent: North America
KHTO METAR Weather: KHTO 232335Z AUTO 12010G15KT 7SM SCT055 BKN075 OVC085 22/22 A3001 RMK AO2 T02230216
KHTO Flight Activity (FlightAware)
KHTO Airport Info   (iFlightPlanner)
KHTO VFR Sectional Chart   (iFlightPlanner) 
KHTO IFR Low Chart   (iFlightPlanner) 

KHTO CTAF/Tower
Feed Status: UP   Listeners: 0
Listen in your browser - HTML5 player (in browser, HTML5)
Click here to listen with your own player (launches your MP3 player)
Archive Access: KHTO CTAF/Tower
FacilityFrequency
East Hampton CTAF/Tower125.225

NOTICE

Unauthorized use prohibited. See LiveATC.net Terms of Service


Airport/ARTCC Code
Frequency Search
(e.g., 124.400, 128.75)
Site-wide search
 


Browse Feeds
Top 50 Feeds
HF Oceanic Feeds
Coverage Map
Bad Weather Areas

LiveATC FAQ
Offer LiveATC feed
Contact LiveATC.net
Press Inquiries

LiveATC on iPhone
LiveATC on Android

Windows Phone
Windows 8/10

LiveATC Mobile
(Mobile browser)

ATC Audio Archives
Interesting Recordings

LiveATC Forums


Home Page
About LiveATC.net
Make a Donation
Terms of Use
Privacy Policy

Canadian Air Freqs

AIRMETs/SIGMETs

FAA Airport Status
NAS Status
Arrival Demand


Server Software By:
Icecast.org
Liquidsoap